Flight Track Log - Related Links

Times and Time Zones

All times are in EDT time to prevent confusion due to time zone crossing. See the N440FX flight status page for this flight to view local times or setup timezone preferences in your user account.

Time Position Orientation Groundspeed Altitude Reporting Facility
EDT Latitude Longitude Course Direction KTS MPH feet Rate Location/Type
Sun 01:11:02 PM 43.5425 -72.4600 231° Southwest 399 459 8,600  Level Boston Center
Sun 01:12:02 PM 43.5008 -72.5317 230° Southwest 303 349 12,200 3,100 Climbing Boston Center
Sun 01:13:02 PM 43.4464 -72.6203 230° Southwest 291 335 14,800 1,800 Climbing Boston Center
Sun 01:14:02 PM 43.3794 -72.7286 230° Southwest 334 384 15,800 550 Climbing Boston Center
Sun 01:15:02 PM 43.3125 -72.8394 230° Southwest 367 422 15,900 50 Climbing Boston Center
Sun 01:16:02 PM 43.2453 -72.9503 228° Southwest 379 436 15,900  Level Boston Center
Sun 01:17:02 PM 43.1678 -73.0664 229° Southwest 379 436 15,900 50 Level Boston Center
Sun 01:18:02 PM 43.1047 -73.1653 211° Southwest 384 442 16,000 50 Climbing Boston Center
Sun 01:19:02 PM 43.0039 -73.2492 211° Southwest 378 435 16,000  Level Boston Center
Sun 01:20:02 PM 42.9244 -73.3133 200° South 384 442 16,000  Level Boston Center
Sun 01:21:02 PM 42.8114 -73.3683 204° Southwest 391 450 16,000  Level Boston Center
Sun 01:22:02 PM 42.7256 -73.4208 203° Southwest 385 443 16,000  Level Boston Center
Sun 01:23:02 PM 42.6186 -73.4811 194° South 380 437 16,000  Level Boston Center
Sun 01:24:02 PM 42.5267 -73.5133 196° South 374 430 16,000  Level Boston Center
Sun 01:25:02 PM 42.4178 -73.5567 195° South 374 430 16,000 -500 Level Boston Center
Sun 01:26:02 PM 42.3133 -73.5942 194° South 379 436 15,000 -1,250 Descending Boston Center
Sun 01:27:02 PM 42.2108 -73.6286 194° South 379 436 13,500 -1,400 Descending Boston Center
Sun 01:28:02 PM 42.1083 -73.6631 193° South 379 436 12,200 -750 Descending Boston Center
Sun 01:29:02 PM 42.0058 -73.6944 195° South 379 436 12,000 -300 Descending Boston Center
Sun 01:30:02 PM 41.9033 -73.7317 193° South 379 436 11,600 -750 Descending Boston Center
Sun 01:31:02 PM 41.8133 -73.7603 193° South 379 436 10,500 -800 Descending Boston Center
Sun 01:32:02 PM 41.7044 -73.7942 196° South 379 436 10,000 -936 Descending Boston Center
Sun 01:33:23 PM 41.6000 -73.8333 189° South 279 321 8,300 -1,404 Descending New York TRACON
Sun 01:34:23 PM 41.5167 -73.8500 191° South 270 311 6,700 -1,750 Descending New York TRACON
Sun 01:35:23 PM 41.4500 -73.8667 180° South 267 307 4,800 -1,737 Descending New York TRACON
Sun 01:36:17 PM 41.3833 -73.8667 191° South 255 293 3,400 -947 Descending New York TRACON
Sun 01:37:17 PM 41.3167 -73.8833 159° South 218 251 3,000 -200 Descending New York TRACON
Sun 01:38:17 PM 41.2500 -73.8500 153° Southeast 244 281 3,000  Level New York TRACON
Sun 01:39:17 PM 41.2000 -73.8167 153° Southeast 225 259 3,000 -300 Level New York TRACON
Sun 01:40:17 PM 41.1500 -73.7833 143° Southeast 181 208 2,400 -750 Descending New York TRACON
Sun 01:41:17 PM 41.1167 -73.7500 143° Southeast 157 181 1,500 -850 Descending New York TRACON
Sun 01:42:17 PM 41.0833 -73.7167 323° Northwest 134 154 700 -800 Descending New York TRACON
Sun 01:49:32 PM 41.6495 -74.2888 323° Northwest  Level FlightAware Approximate

Login

Don't have an account? Register now (free) for customized features, flight alerts, and more!